Time;durP1;ratioP1;P1;durP2;ratioP2;P2;SDS_P1;SDS_P2;PMS_P1;PMS_P2;Temp;Humidity;BMP_temperature;BMP_pressure;BME280_temperature;BME280_humidity;BME280_pressure;Samples;Min_cycle;Max_cycle;Signal;HPM_P1;HPM_P2
2022/09/14 00:01:33;;;;;;;0.88;0.38;;;23.30;99.90;;;;;;5062575;28;47098;-73
2022/09/14 00:04:02;;;;;;;0.63;0.40;;;23.30;99.90;;;;;;5066898;28;45365;-73
2022/09/14 00:06:30;;;;;;;0.35;0.32;;;23.30;99.90;;;;;;5054976;28;45535;-73
2022/09/14 00:08:59;;;;;;;0.35;0.35;;;23.30;99.90;;;;;;5054908;28;45528;-73
2022/09/14 00:11:28;;;;;;;1.10;0.60;;;23.30;99.70;;;;;;5057801;28;48185;-73
2022/09/14 00:13:57;;;;;;;1.70;0.57;;;23.30;99.70;;;;;;5061102;28;45640;-73
2022/09/14 00:16:26;;;;;;;0.85;0.40;;;23.30;99.60;;;;;;5061643;28;45405;-73
2022/09/14 00:18:56;;;;;;;0.50;0.38;;;23.30;99.50;;;;;;5058220;28;45476;-73
2022/09/14 00:21:24;;;;;;;0.73;0.40;;;23.30;99.50;;;;;;5059604;28;46589;-73
2022/09/14 00:23:51;;;;;;;0.60;0.30;;;23.30;99.30;;;;;;5059051;28;45494;-73
2022/09/14 00:26:19;;;;;;;1.05;0.38;;;23.30;99.30;;;;;;5061852;28;45428;-73
2022/09/14 00:28:48;;;;;;;0.98;0.30;;;23.30;99.20;;;;;;5058733;28;45618;-73
2022/09/14 00:31:15;;;;;;;0.40;0.40;;;23.30;99.20;;;;;;5060328;28;46227;-73
2022/09/14 00:33:43;;;;;;;0.30;0.30;;;23.30;99.10;;;;;;5060042;28;45332;-73
2022/09/14 00:36:13;;;;;;;0.30;0.30;;;23.30;99.10;;;;;;5062940;28;45471;-73
2022/09/14 00:38:40;;;;;;;0.40;0.30;;;23.30;99.10;;;;;;5063019;28;45217;-73
2022/09/14 00:41:10;;;;;;;0.52;0.40;;;23.30;99.10;;;;;;5064501;28;46287;-73
2022/09/14 00:43:53;;;;;;;0.20;0.20;;;23.30;98.90;;;;;;5064415;28;45265;-73
2022/09/14 00:46:20;;;;;;;0.70;0.55;;;23.30;98.90;;;;;;5064939;28;45272;-73
2022/09/14 00:48:47;;;;;;;0.43;0.43;;;23.30;98.90;;;;;;5065312;28;45218;-73
2022/09/14 00:51:16;;;;;;;0.50;0.40;;;23.30;98.90;;;;;;5063637;28;48467;-73
2022/09/14 00:53:43;;;;;;;0.30;0.30;;;23.30;98.80;;;;;;5068510;28;45347;-73
2022/09/14 00:56:11;;;;;;;0.50;0.30;;;23.30;98.90;;;;;;5067132;28;45428;-73
2022/09/14 00:58:38;;;;;;;0.30;0.30;;;23.30;98.90;;;;;;5065302;28;45432;-73
2022/09/14 01:01:06;;;;;;;0.20;0.20;;;23.30;98.80;;;;;;5064749;28;47695;-73
2022/09/14 01:03:33;;;;;;;0.82;0.40;;;23.20;98.70;;;;;;5064318;28;45412;-74
2022/09/14 01:06:10;;;;;;;0.22;0.22;;;23.30;98.70;;;;;;5065278;28;45419;-73
2022/09/14 01:09:03;;;;;;;0.40;0.28;;;23.30;98.80;;;;;;5060984;28;45250;-73
2022/09/14 01:11:51;;;;;;;1.08;0.40;;;23.30;98.60;;;;;;5056153;28;45252;-73
2022/09/14 01:14:25;;;;;;;0.65;0.20;;;23.30;98.60;;;;;;5063610;28;45420;-73
2022/09/14 01:16:59;;;;;;;0.63;0.40;;;23.30;98.70;;;;;;5064717;28;45328;-73
2022/09/14 01:19:41;;;;;;;0.32;0.30;;;23.30;98.50;;;;;;5062858;28;45602;-73
2022/09/14 01:22:11;;;;;;;0.47;0.40;;;23.30;98.50;;;;;;5060740;28;46110;-73
2022/09/14 01:24:45;;;;;;;0.88;0.40;;;23.30;98.40;;;;;;5063326;28;45562;-73
2022/09/14 01:27:26;;;;;;;0.73;0.30;;;23.30;98.30;;;;;;5061261;28;45373;-73
2022/09/14 01:30:02;;;;;;;0.40;0.30;;;23.20;98.20;;;;;;5058443;28;45384;-73
2022/09/14 01:32:35;;;;;;;0.30;0.30;;;23.30;98.20;;;;;;5059585;28;47378;-73
2022/09/14 01:35:06;;;;;;;0.32;0.32;;;23.30;98.10;;;;;;5060677;28;45637;-73
2022/09/14 01:37:38;;;;;;;0.40;0.25;;;23.30;98.10;;;;;;5065032;28;45313;-73
2022/09/14 01:40:11;;;;;;;0.35;0.30;;;23.30;98.10;;;;;;5064344;28;45329;-73
2022/09/14 01:42:42;;;;;;;0.17;0.15;;;23.30;98.10;;;;;;5063710;28;46782;-73
2022/09/14 01:45:13;;;;;;;0.22;0.22;;;23.30;98.00;;;;;;5064344;28;45364;-73
2022/09/14 01:47:45;;;;;;;0.85;0.30;;;23.20;98.10;;;;;;5063905;28;45338;-73
2022/09/14 01:50:16;;;;;;;0.32;0.20;;;23.30;98.00;;;;;;5054700;28;45265;-73
2022/09/14 01:52:46;;;;;;;0.80;0.20;;;23.30;97.90;;;;;;5062549;28;48041;-73
2022/09/14 01:55:18;;;;;;;0.40;0.20;;;23.30;98.00;;;;;;5063908;28;45464;-73
2022/09/14 01:57:51;;;;;;;0.10;0.10;;;23.30;97.90;;;;;;5065036;28;45392;-73
2022/09/14 02:00:20;;;;;;;1.25;0.30;;;23.30;97.90;;;;;;5064044;28;45212;-73
2022/09/14 02:02:52;;;;;;;0.20;0.20;;;23.30;97.90;;;;;;5063080;28;48305;-73
2022/09/14 02:05:26;;;;;;;0.30;0.30;;;23.30;98.00;;;;;;5063527;28;45361;-73
2022/09/14 02:07:53;;;;;;;0.30;0.25;;;23.20;98.00;;;;;;5061619;28;45405;-73
2022/09/14 02:10:21;;;;;;;0.22;0.20;;;23.20;97.80;;;;;;5063700;28;45349;-73
2022/09/14 02:12:49;;;;;;;0.20;0.20;;;23.30;98.00;;;;;;5056458;28;47658;-73
2022/09/14 02:15:16;;;;;;;0.40;0.30;;;23.20;97.80;;;;;;5062240;28;45447;-73
2022/09/14 02:17:43;;;;;;;2.10;0.35;;;23.20;97.80;;;;;;5057381;28;45318;-73
2022/09/14 02:20:16;;;;;;;0.20;0.20;;;23.20;97.70;;;;;;5062205;28;45349;-73
2022/09/14 02:22:43;;;;;;;0.20;0.20;;;23.20;97.60;;;;;;5062704;28;48048;-73
2022/09/14 02:25:10;;;;;;;2.53;0.30;;;23.20;97.70;;;;;;5054557;28;45354;-73
2022/09/14 02:27:37;;;;;;;0.30;0.20;;;23.30;97.60;;;;;;5063877;28;45335;-74
2022/09/14 02:30:07;;;;;;;0.20;0.20;;;23.20;97.50;;;;;;5063298;28;45728;-73
2022/09/14 02:32:40;;;;;;;0.25;0.20;;;23.20;97.40;;;;;;5063455;28;46319;-74
2022/09/14 02:35:15;;;;;;;0.93;0.32;;;23.20;97.40;;;;;;5063265;28;45432;-73
2022/09/14 02:37:48;;;;;;;0.10;0.10;;;23.30;97.50;;;;;;5048769;28;45344;-73
2022/09/14 02:40:22;;;;;;;0.43;0.43;;;23.30;97.40;;;;;;5061135;28;45331;-73
2022/09/14 02:42:59;;;;;;;0.30;0.30;;;23.20;97.30;;;;;;5063316;28;45358;-73
2022/09/14 02:45:32;;;;;;;0.35;0.20;;;23.20;97.30;;;;;;5058167;28;45370;-73
2022/09/14 02:48:04;;;;;;;0.20;0.20;;;23.30;97.30;;;;;;5062745;28;45443;-73
2022/09/14 02:50:39;;;;;;;0.28;0.20;;;23.20;97.20;;;;;;5052547;28;45298;-73
2022/09/14 02:53:10;;;;;;;0.20;0.20;;;23.20;97.30;;;;;;5062745;28;47767;-73
2022/09/14 02:55:41;;;;;;;0.32;0.22;;;23.20;97.20;;;;;;5062683;28;45448;-73
2022/09/14 02:58:10;;;;;;;0.60;0.20;;;23.20;97.20;;;;;;5063661;28;45282;-73
2022/09/14 03:00:39;;;;;;;0.82;0.30;;;23.20;97.10;;;;;;5062827;28;45461;-73
2022/09/14 03:03:08;;;;;;;0.32;0.20;;;23.20;97.00;;;;;;5059693;28;46476;-73
2022/09/14 03:05:35;;;;;;;0.32;0.22;;;23.20;97.00;;;;;;5063133;28;45376;-73
2022/09/14 03:08:03;;;;;;;0.20;0.20;;;23.20;97.00;;;;;;5063419;28;45289;-73
2022/09/14 03:10:30;;;;;;;0.55;0.30;;;23.20;97.10;;;;;;5064191;28;45303;-73
2022/09/14 03:12:57;;;;;;;0.47;0.30;;;23.20;97.00;;;;;;5062821;28;46870;-73
2022/09/14 03:15:26;;;;;;;0.30;0.20;;;23.20;96.90;;;;;;5063403;28;45294;-73
2022/09/14 03:17:54;;;;;;;0.25;0.20;;;23.20;97.00;;;;;;5062920;28;45487;-73
2022/09/14 03:20:26;;;;;;;0.40;0.15;;;23.20;97.00;;;;;;5062939;28;45235;-74
2022/09/14 03:22:52;;;;;;;0.47;0.20;;;23.20;96.90;;;;;;5060692;28;48329;-73
2022/09/14 03:25:21;;;;;;;0.15;0.15;;;23.20;97.00;;;;;;5060500;28;45426;-73
2022/09/14 03:27:49;;;;;;;0.20;0.20;;;23.20;96.90;;;;;;5062329;28;45354;-73
2022/09/14 03:30:16;;;;;;;0.55;0.32;;;23.20;96.90;;;;;;5062141;28;45301;-73
2022/09/14 03:32:43;;;;;;;0.17;0.17;;;23.20;96.80;;;;;;5059238;28;46297;-74
2022/09/14 03:35:11;;;;;;;0.28;0.20;;;23.20;96.80;;;;;;5059669;28;46266;-73
2022/09/14 03:37:39;;;;;;;0.47;0.20;;;23.20;96.80;;;;;;5063279;28;46706;-73
2022/09/14 03:40:08;;;;;;;1.23;0.40;;;23.20;96.80;;;;;;5063598;28;45515;-73
2022/09/14 03:42:35;;;;;;;0.22;0.22;;;23.20;96.80;;;;;;5060526;28;46311;-74
2022/09/14 03:45:02;;;;;;;0.32;0.30;;;23.20;96.70;;;;;;5063586;28;45194;-73
2022/09/14 03:47:30;;;;;;;0.38;0.30;;;23.20;96.60;;;;;;5063155;28;45410;-74
2022/09/14 03:49:57;;;;;;;0.20;0.20;;;23.20;96.70;;;;;;5063039;28;45339;-73
2022/09/14 03:52:25;;;;;;;0.60;0.30;;;23.20;96.70;;;;;;5062253;28;45508;-73
2022/09/14 03:54:52;;;;;;;0.20;0.20;;;23.20;96.60;;;;;;5062683;28;46433;-73
2022/09/14 03:57:18;;;;;;;0.20;0.20;;;23.20;96.60;;;;;;5051966;28;45395;-73
2022/09/14 03:59:45;;;;;;;0.20;0.20;;;23.20;96.60;;;;;;5052569;28;45294;-74
2022/09/14 04:02:12;;;;;;;0.20;0.20;;;23.20;96.60;;;;;;5066927;28;47535;-73
2022/09/14 04:04:39;;;;;;;0.20;0.20;;;23.20;96.50;;;;;;5061359;28;45478;-72
2022/09/14 04:07:06;;;;;;;0.50;0.20;;;23.20;96.50;;;;;;5062164;28;45244;-74
2022/09/14 04:09:34;;;;;;;0.40;0.22;;;23.20;96.40;;;;;;5061466;28;45452;-73
2022/09/14 04:12:01;;;;;;;0.40;0.30;;;23.20;96.50;;;;;;5062048;28;45579;-73
2022/09/14 04:14:28;;;;;;;0.20;0.20;;;23.20;96.90;;;;;;5060766;28;45518;-73
2022/09/14 04:16:54;;;;;;;0.20;0.20;;;23.20;96.50;;;;;;5065611;28;45387;-73
2022/09/14 04:19:21;;;;;;;0.30;0.30;;;23.20;96.60;;;;;;5057822;28;45484;-73
2022/09/14 04:21:48;;;;;;;0.30;0.22;;;23.20;96.30;;;;;;5065611;28;46827;-73
2022/09/14 04:24:15;;;;;;;0.50;0.32;;;23.20;96.40;;;;;;5058613;28;45504;-73
2022/09/14 04:26:45;;;;;;;0.47;0.20;;;23.20;96.40;;;;;;5065504;28;45529;-73
2022/09/14 04:29:13;;;;;;;0.30;0.30;;;23.20;96.40;;;;;;5065574;28;45219;-73
2022/09/14 04:31:40;;;;;;;0.57;0.30;;;23.20;96.40;;;;;;5065010;28;46282;-73
2022/09/14 04:34:07;;;;;;;0.88;0.30;;;23.20;96.30;;;;;;5063259;28;45460;-73
2022/09/14 04:36:34;;;;;;;0.17;0.17;;;23.20;96.30;;;;;;5066783;28;45494;-73
2022/09/14 04:39:03;;;;;;;0.25;0.25;;;23.20;96.20;;;;;;5065589;28;45359;-73
2022/09/14 04:41:31;;;;;;;0.90;0.20;;;23.20;96.20;;;;;;5061131;28;45517;-73
2022/09/14 04:44:00;;;;;;;0.20;0.20;;;23.20;96.20;;;;;;5065094;28;45291;-73
2022/09/14 04:46:28;;;;;;;0.30;0.30;;;23.20;96.10;;;;;;5054939;28;45390;-74
2022/09/14 04:48:55;;;;;;;0.65;0.30;;;23.20;96.00;;;;;;5054957;28;45607;-73
2022/09/14 04:51:23;;;;;;;0.30;0.30;;;23.20;96.10;;;;;;5065018;28;48803;-73
2022/09/14 04:53:53;;;;;;;1.40;0.22;;;23.20;95.90;;;;;;5065182;28;45425;-73
2022/09/14 04:56:21;;;;;;;0.80;0.40;;;23.20;95.90;;;;;;5059526;28;45306;-73
2022/09/14 04:58:50;;;;;;;0.63;0.30;;;23.20;95.80;;;;;;5061230;28;45267;-73
2022/09/14 05:01:20;;;;;;;0.20;0.20;;;23.20;95.70;;;;;;5063923;28;47732;-73
2022/09/14 05:03:47;;;;;;;0.68;0.45;;;23.10;95.70;;;;;;5064670;28;45431;-73
2022/09/14 05:06:17;;;;;;;0.52;0.20;;;23.20;95.70;;;;;;5064286;28;45421;-73
2022/09/14 05:08:45;;;;;;;0.20;0.20;;;23.20;95.60;;;;;;5063329;28;45517;-73
2022/09/14 05:11:14;;;;;;;0.40;0.40;;;23.20;95.50;;;;;;5064429;27;45616;-73
2022/09/14 05:13:42;;;;;;;0.40;0.30;;;23.20;95.50;;;;;;5054079;28;45458;-73
2022/09/14 05:16:10;;;;;;;0.55;0.20;;;23.20;95.20;;;;;;5064198;28;45294;-74
2022/09/14 05:18:38;;;;;;;0.85;0.30;;;23.10;95.20;;;;;;5065498;28;45547;-73
2022/09/14 05:21:07;;;;;;;0.32;0.30;;;23.20;95.30;;;;;;5062092;28;48280;-73
2022/09/14 05:23:35;;;;;;;0.30;0.30;;;23.10;95.20;;;;;;5064877;28;45717;-73
2022/09/14 05:26:02;;;;;;;0.50;0.30;;;23.10;95.20;;;;;;5063383;28;45476;-73
2022/09/14 05:28:28;;;;;;;0.28;0.22;;;23.10;95.20;;;;;;5062991;28;45499;-73
2022/09/14 05:30:55;;;;;;;0.10;0.10;;;23.10;95.20;;;;;;5063821;28;47530;-73
2022/09/14 05:33:23;;;;;;;0.50;0.20;;;23.10;95.20;;;;;;5063924;28;45360;-73
2022/09/14 05:35:52;;;;;;;0.30;0.30;;;23.10;95.20;;;;;;5062853;28;45263;-73
2022/09/14 05:38:20;;;;;;;0.30;0.30;;;23.10;95.20;;;;;;5062589;28;45333;-73
2022/09/14 05:40:47;;;;;;;0.52;0.30;;;23.10;95.20;;;;;;5063164;28;46462;-73
2022/09/14 05:43:14;;;;;;;0.10;0.10;;;23.10;95.20;;;;;;5061537;28;45362;-74
2022/09/14 05:45:41;;;;;;;0.57;0.30;;;23.10;95.20;;;;;;5058587;28;45552;-73
2022/09/14 05:48:07;;;;;;;1.35;0.40;;;23.10;95.20;;;;;;5067178;28;45291;-73
2022/09/14 05:50:34;;;;;;;0.20;0.20;;;23.20;95.20;;;;;;5064673;28;47492;-73
2022/09/14 05:53:02;;;;;;;0.60;0.40;;;23.10;95.20;;;;;;5052745;28;45418;-74
2022/09/14 05:55:29;;;;;;;0.57;0.30;;;23.20;95.20;;;;;;5063883;28;45295;-73
2022/09/14 05:57:56;;;;;;;0.30;0.30;;;23.20;95.20;;;;;;5064914;28;45554;-73
2022/09/14 06:00:23;;;;;;;1.25;0.40;;;23.20;94.80;;;;;;5064831;28;46845;-73
2022/09/14 06:02:51;;;;;;;0.40;0.30;;;23.20;94.60;;;;;;5060065;28;45405;-73
2022/09/14 06:05:18;;;;;;;0.20;0.20;;;23.20;94.40;;;;;;5064354;28;45377;-73
2022/09/14 06:07:45;;;;;;;0.60;0.38;;;23.20;94.50;;;;;;5063639;28;45385;-74
2022/09/14 06:10:13;;;;;;;0.22;0.20;;;23.20;94.40;;;;;;5064917;28;46599;-74
2022/09/14 06:12:40;;;;;;;0.30;0.30;;;23.20;94.40;;;;;;5064588;28;45785;-73
2022/09/14 06:15:08;;;;;;;0.35;0.32;;;23.20;94.40;;;;;;5064053;28;45249;-74
2022/09/14 06:17:34;;;;;;;0.20;0.20;;;23.20;94.40;;;;;;5063094;28;45638;-74
2022/09/14 06:20:02;;;;;;;0.32;0.20;;;23.20;94.40;;;;;;5060203;28;47999;-73
2022/09/14 06:22:28;;;;;;;0.55;0.30;;;23.20;94.50;;;;;;5069592;28;45393;-74
2022/09/14 06:24:55;;;;;;;0.30;0.30;;;23.20;94.60;;;;;;5063848;28;45489;-73
2022/09/14 06:27:23;;;;;;;0.22;0.20;;;23.20;94.50;;;;;;5060879;28;45229;-73
2022/09/14 06:29:51;;;;;;;0.93;0.30;;;23.20;94.60;;;;;;5057450;28;48197;-73
2022/09/14 06:32:18;;;;;;;0.30;0.30;;;23.20;94.80;;;;;;5063139;28;45444;-73
2022/09/14 06:34:45;;;;;;;0.20;0.20;;;23.20;94.80;;;;;;5060954;28;45464;-73
2022/09/14 06:37:12;;;;;;;0.28;0.13;;;23.20;94.70;;;;;;5061763;28;45593;-73
2022/09/14 06:39:38;;;;;;;0.20;0.20;;;23.20;94.80;;;;;;5054898;28;46461;-73
2022/09/14 06:42:05;;;;;;;0.20;0.20;;;23.20;94.90;;;;;;5059246;28;45457;-74
2022/09/14 06:44:33;;;;;;;0.63;0.30;;;23.20;94.90;;;;;;5054548;28;45500;-73
2022/09/14 06:47:00;;;;;;;1.30;0.40;;;23.20;94.80;;;;;;5050007;28;45354;-72
2022/09/14 06:49:27;;;;;;;1.45;0.40;;;23.20;94.90;;;;;;5059879;28;47542;-73
2022/09/14 06:51:56;;;;;;;0.68;0.47;;;23.20;94.70;;;;;;5062874;28;45437;-73
2022/09/14 06:54:23;;;;;;;0.55;0.30;;;23.20;94.70;;;;;;5060526;28;45502;-73
2022/09/14 06:56:50;;;;;;;0.77;0.30;;;23.20;94.80;;;;;;5056780;28;45478;-72
2022/09/14 06:59:18;;;;;;;0.63;0.40;;;23.20;94.60;;;;;;5061689;28;48109;-73
2022/09/14 07:01:48;;;;;;;0.55;0.20;;;23.20;94.60;;;;;;5060935;28;45429;-73
2022/09/14 07:04:16;;;;;;;1.30;0.50;;;23.20;94.60;;;;;;5062561;28;45399;-74
2022/09/14 07:06:45;;;;;;;1.08;0.45;;;23.20;94.50;;;;;;5063022;28;45411;-73
2022/09/14 07:09:13;;;;;;;1.77;0.32;;;23.20;94.60;;;;;;5066039;28;45410;-73
2022/09/14 07:11:40;;;;;;;0.38;0.20;;;23.20;94.60;;;;;;5063518;28;45505;-73
2022/09/14 07:14:08;;;;;;;0.47;0.30;;;23.20;94.60;;;;;;5062314;28;45335;-73
2022/09/14 07:16:36;;;;;;;0.77;0.35;;;23.20;94.60;;;;;;5063800;28;45365;-73
2022/09/14 07:19:06;;;;;;;0.88;0.30;;;23.20;94.60;;;;;;5063449;28;46647;-73
2022/09/14 07:21:34;;;;;;;0.68;0.22;;;23.20;94.50;;;;;;5063757;28;45450;-73
2022/09/14 07:24:01;;;;;;;0.45;0.30;;;23.20;94.50;;;;;;5055831;28;45330;-73
2022/09/14 07:26:30;;;;;;;22.67;2.83;;;23.20;94.50;;;;;;5061939;28;45618;-71
2022/09/14 07:29:02;;;;;;;26.67;2.50;;;23.30;94.80;;;;;;5059380;28;46601;-74
2022/09/14 07:31:32;;;;;;;17.08;1.95;;;23.40;95.00;;;;;;5063182;28;45892;-73
2022/09/14 07:34:02;;;;;;;20.77;1.67;;;23.30;94.80;;;;;;5056035;28;45426;-74
2022/09/14 07:36:31;;;;;;;7.22;0.73;;;23.30;94.70;;;;;;5044272;28;45656;-73
2022/09/14 07:38:58;;;;;;;4.00;0.47;;;23.30;94.60;;;;;;5060224;28;45496;-75
2022/09/14 07:41:27;;;;;;;4.70;0.63;;;23.30;94.60;;;;;;5064260;28;45301;-74
2022/09/14 07:43:58;;;;;;;3.95;0.60;;;23.30;94.70;;;;;;5064886;28;45494;-74
2022/09/14 07:46:28;;;;;;;1.40;0.30;;;23.30;94.70;;;;;;5063892;28;45265;-74
2022/09/14 07:48:56;;;;;;;0.98;0.43;;;23.20;94.60;;;;;;5063131;28;45298;-74
2022/09/14 07:51:24;;;;;;;2.10;0.60;;;23.30;94.70;;;;;;5062458;28;45343;-74
2022/09/14 07:53:52;;;;;;;0.43;0.20;;;23.20;94.80;;;;;;5064656;28;45285;-74
2022/09/14 07:56:20;;;;;;;2.53;0.30;;;23.20;94.60;;;;;;5064115;28;45446;-74
2022/09/14 07:58:47;;;;;;;1.33;0.32;;;23.30;94.50;;;;;;5067089;28;47690;-74
2022/09/14 08:01:17;;;;;;;1.83;0.50;;;23.20;94.40;;;;;;5062282;28;45311;-74
2022/09/14 08:03:45;;;;;;;1.75;0.35;;;23.30;94.40;;;;;;5053484;28;45370;-74
2022/09/14 08:06:17;;;;;;;1.90;0.38;;;23.20;94.30;;;;;;5061595;28;45299;-74
2022/09/14 08:08:46;;;;;;;3.10;0.45;;;23.20;94.30;;;;;;5060486;28;46622;-74
2022/09/14 08:11:16;;;;;;;0.40;0.28;;;23.20;94.20;;;;;;5063487;28;45360;-74
2022/09/14 08:13:44;;;;;;;0.43;0.40;;;23.30;94.40;;;;;;5059264;28;45242;-74
2022/09/14 08:16:13;;;;;;;0.75;0.50;;;23.20;94.20;;;;;;5070482;28;45427;-74
2022/09/14 08:18:40;;;;;;;1.20;0.40;;;23.20;94.20;;;;;;5066372;28;45491;-74
2022/09/14 08:21:10;;;;;;;0.30;0.20;;;23.30;94.20;;;;;;5064259;28;45345;-74
2022/09/14 08:23:37;;;;;;;1.08;0.30;;;23.20;94.20;;;;;;5063659;28;45542;-74
2022/09/14 08:26:05;;;;;;;0.60;0.40;;;23.20;94.00;;;;;;5063783;28;45436;-74
2022/09/14 08:28:35;;;;;;;2.30;0.47;;;23.20;94.10;;;;;;5058511;28;46594;-74
2022/09/14 08:31:05;;;;;;;3.22;0.40;;;23.30;94.10;;;;;;5059964;28;45427;-74
2022/09/14 08:33:33;;;;;;;0.95;0.40;;;23.20;94.10;;;;;;5066542;28;45536;-74
2022/09/14 08:36:00;;;;;;;0.77;0.30;;;23.30;94.00;;;;;;5063742;28;45345;-74
2022/09/14 08:38:27;;;;;;;1.65;0.45;;;23.20;94.00;;;;;;5060783;28;48373;-74
2022/09/14 08:40:54;;;;;;;0.20;0.20;;;23.30;94.10;;;;;;5063372;28;45232;-74
2022/09/14 08:43:24;;;;;;;0.30;0.25;;;23.20;94.20;;;;;;5063209;28;45305;-73
2022/09/14 08:45:57;;;;;;;0.63;0.35;;;23.20;94.40;;;;;;5063127;28;45397;-74
2022/09/14 08:48:30;;;;;;;1.30;0.50;;;23.20;94.30;;;;;;5063665;28;45444;-74
2022/09/14 08:50:57;;;;;;;0.80;0.22;;;23.20;94.20;;;;;;5069187;28;45259;-74
2022/09/14 08:53:25;;;;;;;0.52;0.22;;;23.20;94.20;;;;;;5063523;28;45401;-74
2022/09/14 08:55:57;;;;;;;0.35;0.30;;;23.20;94.30;;;;;;5063870;28;45335;-74
2022/09/14 08:58:36;;;;;;;0.82;0.52;;;23.20;94.20;;;;;;5062257;28;45447;-74
2022/09/14 09:01:16;;;;;;;0.52;0.17;;;23.20;94.30;;;;;;5071361;27;45415;-73
2022/09/14 09:04:09;;;;;;;1.27;0.20;;;23.20;94.20;;;;;;5066001;28;45416;-74
2022/09/14 09:06:44;;;;;;;0.43;0.28;;;23.20;94.10;;;;;;5063171;28;45298;-74
2022/09/14 09:09:19;;;;;;;1.00;0.43;;;23.20;94.10;;;;;;5065978;28;47246;-74
2022/09/14 09:11:49;;;;;;;0.77;0.40;;;23.20;94.10;;;;;;5064806;28;45246;-73
2022/09/14 09:14:19;;;;;;;0.38;0.30;;;23.20;94.10;;;;;;5069162;28;45432;-74
2022/09/14 09:16:52;;;;;;;3.20;0.47;;;23.30;94.10;;;;;;5066191;28;45529;-74
2022/09/14 09:19:23;;;;;;;0.47;0.22;;;23.20;94.00;;;;;;5066295;28;48594;-74
2022/09/14 09:21:51;;;;;;;0.60;0.28;;;23.30;94.00;;;;;;5066683;28;45711;-75
2022/09/14 09:24:26;;;;;;;22.33;2.28;;;23.30;94.00;;;;;;5063950;28;46270;-73
2022/09/14 09:26:53;;;;;;;13.35;1.42;;;23.30;94.00;;;;;;5062683;28;45301;-73
2022/09/14 09:29:20;;;;;;;14.63;1.30;;;23.30;94.10;;;;;;5064351;28;46542;-73
2022/09/14 09:31:52;;;;;;;10.07;1.55;;;23.30;94.00;;;;;;5065787;28;45400;-73
2022/09/14 09:34:24;;;;;;;6.10;1.38;;;23.30;94.00;;;;;;5045854;28;45352;-73
2022/09/14 09:36:51;;;;;;;4.13;0.85;;;23.30;94.00;;;;;;5064230;28;45681;-74
2022/09/14 09:39:18;;;;;;;4.18;0.73;;;23.30;94.20;;;;;;5064768;28;47524;-73
2022/09/14 09:41:48;;;;;;;3.85;0.80;;;23.20;94.00;;;;;;5064062;28;45281;-73
2022/09/14 09:44:15;;;;;;;3.17;0.90;;;23.20;94.00;;;;;;5057218;28;45429;-74
2022/09/14 09:46:47;;;;;;;1.52;0.60;;;23.30;94.00;;;;;;5059300;28;45432;-73
2022/09/14 09:49:22;;;;;;;1.55;0.45;;;23.20;94.00;;;;;;5069684;28;47457;-73
2022/09/14 09:51:49;;;;;;;1.02;0.47;;;23.30;94.00;;;;;;5062158;28;45355;-73
2022/09/14 09:54:28;;;;;;;0.82;0.40;;;23.20;93.90;;;;;;5064942;28;45313;-73
2022/09/14 09:56:57;;;;;;;1.02;0.52;;;23.30;93.90;;;;;;5052639;28;45568;-73
2022/09/14 09:59:30;;;;;;;0.70;0.50;;;23.20;93.80;;;;;;5065369;28;45483;-71
2022/09/14 10:02:20;;;;;;;1.70;0.30;;;23.30;94.10;;;;;;5064716;28;45380;-73
2022/09/14 10:04:59;;;;;;;1.13;0.43;;;23.30;93.70;;;;;;5064286;28;45384;-74
2022/09/14 10:07:27;;;;;;;0.95;0.47;;;23.30;93.60;;;;;;5064096;28;45215;-74
2022/09/14 10:10:00;;;;;;;0.85;0.40;;;23.30;93.70;;;;;;5059065;28;48475;-73
2022/09/14 10:12:28;;;;;;;2.25;0.55;;;23.30;93.60;;;;;;5057504;28;45424;-73
2022/09/14 10:15:15;;;;;;;1.52;0.40;;;23.30;93.70;;;;;;5064034;28;45758;-73
2022/09/14 10:17:55;;;;;;;1.45;0.50;;;23.30;93.60;;;;;;5064407;28;45533;-73
2022/09/14 10:20:25;;;;;;;0.40;0.30;;;23.30;93.70;;;;;;5064576;28;46387;-73
2022/09/14 10:22:52;;;;;;;0.40;0.30;;;23.30;93.40;;;;;;5053539;28;45405;-74
2022/09/14 10:25:25;;;;;;;1.00;0.60;;;23.30;93.50;;;;;;5064132;28;45455;-73
2022/09/14 10:27:59;;;;;;;3.60;0.60;;;23.30;93.50;;;;;;5062682;28;45539;-73
2022/09/14 10:30:28;;;;;;;2.45;0.32;;;23.40;93.40;;;;;;5051207;28;48299;-73
2022/09/14 10:32:59;;;;;;;0.55;0.50;;;23.40;93.40;;;;;;5057901;28;45516;-73
2022/09/14 10:35:35;;;;;;;1.33;0.50;;;23.40;93.40;;;;;;5056840;28;45447;-73
2022/09/14 10:38:25;;;;;;;0.88;0.47;;;23.30;93.40;;;;;;5062648;28;45570;-74
2022/09/14 10:40:59;;;;;;;0.90;0.30;;;23.40;93.40;;;;;;5061366;28;46283;-73
2022/09/14 10:43:40;;;;;;;0.35;0.30;;;23.40;93.40;;;;;;5061463;28;45368;-73
2022/09/14 10:46:12;;;;;;;0.50;0.40;;;23.40;93.40;;;;;;5060981;28;45416;-73
2022/09/14 10:49:15;;;;;;;1.40;0.45;;;23.40;93.40;;;;;;5060822;28;45421;-74
2022/09/14 10:51:58;;;;;;;0.52;0.17;;;23.40;93.20;;;;;;5019652;28;46557;-74
2022/09/14 10:54:46;;;;;;;0.43;0.40;;;23.40;93.20;;;;;;5047711;28;45482;-73
2022/09/14 10:57:28;;;;;;;0.75;0.40;;;23.40;93.40;;;;;;5063628;28;45249;-73
2022/09/14 10:59:57;;;;;;;0.50;0.28;;;23.40;93.30;;;;;;5062764;28;45433;-74
2022/09/14 11:02:44;;;;;;;0.40;0.40;;;23.40;93.30;;;;;;5063807;28;45668;-73
2022/09/14 11:05:22;;;;;;;0.82;0.40;;;23.40;93.70;;;;;;5064079;28;45396;-74
2022/09/14 11:08:02;;;;;;;0.63;0.40;;;23.40;93.30;;;;;;5069030;28;45522;-73
2022/09/14 11:10:36;;;;;;;0.90;0.30;;;23.40;93.30;;;;;;5059326;28;45425;-73
2022/09/14 11:13:27;;;;;;;0.63;0.40;;;23.40;93.40;;;;;;5063336;28;47365;-74
2022/09/14 11:16:00;;;;;;;2.28;0.40;;;23.40;93.50;;;;;;5064062;28;45349;-74
2022/09/14 11:18:33;;;;;;;0.63;0.30;;;23.40;93.40;;;;;;5055480;28;45302;-73
2022/09/14 11:21:07;;;;;;;0.88;0.30;;;23.40;93.20;;;;;;5064269;28;45479;-73
2022/09/14 11:23:46;;;;;;;0.60;0.50;;;23.40;93.30;;;;;;5054810;28;47964;-73
2022/09/14 11:26:16;;;;;;;0.93;0.30;;;23.40;93.80;;;;;;5064810;28;45394;-73
2022/09/14 11:28:46;;;;;;;0.93;0.43;;;23.40;93.30;;;;;;5063863;28;45207;-73
2022/09/14 11:31:19;;;;;;;0.73;0.40;;;23.40;93.10;;;;;;5063894;28;45396;-73
2022/09/14 11:33:52;;;;;;;0.30;0.30;;;23.40;93.20;;;;;;5064813;28;48084;-74
2022/09/14 11:36:22;;;;;;;1.38;0.40;;;23.40;93.10;;;;;;5064947;28;45854;-74
2022/09/14 11:38:56;;;;;;;0.55;0.30;;;23.40;93.10;;;;;;5062530;28;45302;-74
2022/09/14 11:41:28;;;;;;;0.40;0.40;;;23.40;93.10;;;;;;5061157;28;45403;-74
2022/09/14 11:43:59;;;;;;;0.93;0.45;;;23.40;93.00;;;;;;5051721;28;46611;-74
2022/09/14 11:46:32;;;;;;;0.40;0.32;;;23.40;93.00;;;;;;5064420;28;45385;-74
2022/09/14 11:49:05;;;;;;;0.60;0.38;;;23.40;93.10;;;;;;5064681;28;45294;-74
2022/09/14 11:51:36;;;;;;;0.40;0.32;;;23.50;93.20;;;;;;5064626;28;45598;-74
2022/09/14 11:54:15;;;;;;;1.08;0.47;;;23.40;93.00;;;;;;5067667;28;47025;-74
2022/09/14 11:56:43;;;;;;;0.80;0.45;;;23.50;93.20;;;;;;5064805;28;45344;-74
2022/09/14 11:59:33;;;;;;;0.55;0.38;;;23.40;92.90;;;;;;5064404;28;45288;-74
2022/09/14 12:02:49;;;;;;;0.65;0.40;;;23.40;92.80;;;;;;5064461;28;45237;-74
2022/09/14 12:05:31;;;;;;;0.20;0.20;;;23.40;92.80;;;;;;5063899;28;48124;-74
2022/09/14 12:08:00;;;;;;;0.93;0.40;;;23.40;92.90;;;;;;5064634;28;45366;-74
2022/09/14 12:10:29;;;;;;;0.73;0.20;;;23.40;92.90;;;;;;5044473;28;45343;-74
2022/09/14 12:12:58;;;;;;;0.60;0.25;;;23.40;93.00;;;;;;5059692;28;45504;-74
2022/09/14 12:15:33;;;;;;;0.70;0.50;;;23.40;93.00;;;;;;5064110;28;47891;-74
2022/09/14 12:18:23;;;;;;;0.68;0.43;;;23.40;93.00;;;;;;5064677;28;45236;-75
2022/09/14 12:21:01;;;;;;;0.80;0.40;;;23.40;92.90;;;;;;5064914;28;45321;-74
2022/09/14 12:23:32;;;;;;;0.40;0.30;;;23.40;93.00;;;;;;5056695;28;45425;-74
2022/09/14 12:26:19;;;;;;;0.30;0.30;;;23.40;92.80;;;;;;5064378;28;47067;-74
2022/09/14 12:28:49;;;;;;;0.43;0.30;;;23.40;93.00;;;;;;5030701;28;45278;-74
2022/09/14 12:31:37;;;;;;;0.38;0.30;;;23.40;92.80;;;;;;5065505;28;45325;-74
2022/09/14 12:34:17;;;;;;;1.35;0.47;;;23.40;92.80;;;;;;5064344;28;45535;-74
2022/09/14 12:37:29;;;;;;;0.70;0.40;;;23.40;92.80;;;;;;5071262;27;45347;-74
2022/09/14 12:40:33;;;;;;;1.58;0.35;;;23.40;92.70;;;;;;4973448;28;45377;-74
2022/09/14 12:43:47;;;;;;;0.38;0.32;;;23.40;92.60;;;;;;5063914;28;45349;-74
2022/09/14 12:46:38;;;;;;;1.17;0.28;;;23.40;92.70;;;;;;5053003;28;45380;-74
2022/09/14 12:49:27;;;;;;;0.35;0.20;;;23.40;93.00;;;;;;5068738;28;45513;-74
2022/09/14 12:51:55;;;;;;;0.28;0.20;;;23.40;92.80;;;;;;5066150;28;45237;-74
2022/09/14 12:54:38;;;;;;;0.65;0.38;;;23.40;92.80;;;;;;5066113;28;45449;-74
2022/09/14 12:57:17;;;;;;;0.35;0.35;;;23.40;92.80;;;;;;5067720;28;45285;-74
2022/09/14 12:59:51;;;;;;;2.38;0.22;;;23.30;92.70;;;;;;5066392;28;48118;-74
2022/09/14 13:02:56;;;;;;;0.20;0.20;;;23.30;93.00;;;;;;5067678;28;45574;-74
2022/09/14 13:05:25;;;;;;;0.95;0.45;;;23.30;92.60;;;;;;5060611;28;45349;-74
2022/09/14 13:07:54;;;;;;;0.82;0.30;;;23.30;92.90;;;;;;5067535;28;45384;-74